createdAt,value
2023-02-16T00:01:58.942Z,8.26
2023-02-16T00:05:00.847Z,8.28
2023-02-16T00:08:03.478Z,8.30
2023-02-16T00:11:34.055Z,8.31
2023-02-16T00:14:26.049Z,8.35
2023-02-16T00:17:33.645Z,8.37
2023-02-16T00:20:42.540Z,8.36
2023-02-16T00:23:51.619Z,8.36
2023-02-16T00:27:00.721Z,8.39
2023-02-16T00:30:14.302Z,8.45
2023-02-16T00:33:23.071Z,8.52
2023-02-16T00:36:31.821Z,8.59
2023-02-16T00:39:24.958Z,8.65
2023-02-16T00:42:28.553Z,8.71
2023-02-16T00:45:38.403Z,8.76
2023-02-16T00:48:46.824Z,8.82
2023-02-16T00:51:43.926Z,8.89
2023-02-16T00:54:52.717Z,8.95
2023-02-16T00:58:05.177Z,9.00
2023-02-16T01:01:09.795Z,9.03
2023-02-16T01:04:22.708Z,9.03
2023-02-16T01:07:37.233Z,9.05
2023-02-16T01:11:06.555Z,9.07
2023-02-16T01:14:12.687Z,9.08
2023-02-16T01:17:20.508Z,9.09
2023-02-16T01:20:22.856Z,9.11
2023-02-16T01:23:16.851Z,9.14
2023-02-16T01:26:25.588Z,9.17
2023-02-16T01:29:34.618Z,9.20
2023-02-16T01:32:36.009Z,9.22
2023-02-16T01:35:40.182Z,9.23
2023-02-16T01:38:41.808Z,9.23
2023-02-16T01:41:52.472Z,9.23
2023-02-16T01:44:51.327Z,9.24
2023-02-16T01:48:02.762Z,9.23
2023-02-16T01:50:59.742Z,9.22
2023-02-16T01:54:01.074Z,9.21
2023-02-16T01:56:55.508Z,9.19
2023-02-16T02:00:07.100Z,9.16
2023-02-16T02:03:29.316Z,9.13
2023-02-16T02:06:48.200Z,9.13
2023-02-16T02:10:01.379Z,9.14
2023-02-16T02:13:05.844Z,9.16
2023-02-16T02:16:17.838Z,9.18
2023-02-16T02:19:11.513Z,9.19
2023-02-16T02:22:55.474Z,9.19
2023-02-16T02:26:26.098Z,9.18
2023-02-16T02:29:38.009Z,9.17
2023-02-16T02:32:55.275Z,9.18
2023-02-16T02:36:10.396Z,9.21
2023-02-16T02:39:09.970Z,9.23
2023-02-16T02:42:05.629Z,9.24
2023-02-16T02:45:13.814Z,9.23
2023-02-16T02:48:06.224Z,9.23
2023-02-16T02:51:30.893Z,9.23
2023-02-16T02:54:59.989Z,9.26
2023-02-16T02:58:27.635Z,9.28
2023-02-16T03:01:38.149Z,9.29
2023-02-16T03:04:47.231Z,9.29
2023-02-16T03:07:52.092Z,9.29
2023-02-16T03:11:12.009Z,9.29
2023-02-16T03:14:16.312Z,9.30
2023-02-16T03:17:46.278Z,9.32
2023-02-16T03:21:13.410Z,9.34
2023-02-16T03:24:44.774Z,9.34
2023-02-16T03:28:03.302Z,9.32
2023-02-16T03:31:06.940Z,9.31
2023-02-16T03:34:09.272Z,9.32
2023-02-16T03:37:18.676Z,9.34
2023-02-16T03:40:33.263Z,9.38
2023-02-16T03:43:34.309Z,9.44
2023-02-16T03:46:43.373Z,9.50
2023-02-16T03:49:36.223Z,9.56
2023-02-16T03:52:45.587Z,9.59
2023-02-16T03:55:55.203Z,9.62
2023-02-16T03:58:55.081Z,9.64
2023-02-16T04:01:57.882Z,9.67
2023-02-16T04:05:07.708Z,9.68
2023-02-16T04:08:15.205Z,9.66
2023-02-16T04:11:35.157Z,9.64
2023-02-16T04:14:43.976Z,9.62
2023-02-16T04:17:35.144Z,9.61
2023-02-16T04:20:35.658Z,9.60
2023-02-16T04:23:45.310Z,9.58
2023-02-16T04:26:54.178Z,9.57
2023-02-16T04:30:01.333Z,9.59
2023-02-16T04:33:10.357Z,9.62
2023-02-16T04:36:13.064Z,9.65
2023-02-16T04:39:21.436Z,9.69
2023-02-16T04:42:13.257Z,9.73
2023-02-16T04:45:11.284Z,9.78
2023-02-16T04:48:20.426Z,9.82
2023-02-16T04:51:20.596Z,9.84
2023-02-16T04:54:20.278Z,9.87
2023-02-16T04:57:29.273Z,9.89
2023-02-16T05:00:25.632Z,9.90
2023-02-16T05:03:35.443Z,9.91
2023-02-16T05:06:34.006Z,9.92
2023-02-16T05:09:42.728Z,9.92
2023-02-16T05:13:12.196Z,9.92
2023-02-16T05:16:14.012Z,9.93
2023-02-16T05:19:07.934Z,9.92
2023-02-16T05:22:16.858Z,9.92
2023-02-16T05:25:25.906Z,9.91
2023-02-16T05:28:14.793Z,9.91
2023-02-16T05:31:24.403Z,9.91
2023-02-16T05:34:23.208Z,9.91
2023-02-16T05:37:32.337Z,9.92
2023-02-16T05:40:30.408Z,9.92
2023-02-16T05:43:32.492Z,9.92
2023-02-16T05:46:33.119Z,9.91
2023-02-16T05:49:42.205Z,9.92
2023-02-16T05:52:50.494Z,9.93
2023-02-16T05:55:59.228Z,9.93
2023-02-16T05:58:53.653Z,9.94
2023-02-16T06:01:56.690Z,9.94
2023-02-16T06:05:06.694Z,9.95
2023-02-16T06:08:15.410Z,9.96
2023-02-16T06:11:36.454Z,9.95
2023-02-16T06:14:37.622Z,9.95
2023-02-16T06:17:46.481Z,9.93
2023-02-16T06:20:56.719Z,9.91
2023-02-16T06:24:07.301Z,9.89
2023-02-16T06:27:16.057Z,9.88
2023-02-16T06:30:18.930Z,9.87
2023-02-16T06:33:20.415Z,9.86
2023-02-16T06:36:29.505Z,9.85
2023-02-16T06:39:23.091Z,9.85
2023-02-16T06:42:14.142Z,9.83
2023-02-16T06:45:23.098Z,9.82
2023-02-16T06:48:33.017Z,9.81
2023-02-16T06:51:32.942Z,9.81
2023-02-16T06:54:36.253Z,9.80
2023-02-16T06:57:45.935Z,9.80
2023-02-16T07:00:44.160Z,9.78
2023-02-16T07:03:53.760Z,9.78
2023-02-16T07:07:02.658Z,9.77
2023-02-16T07:10:11.016Z,9.75
2023-02-16T07:13:20.299Z,9.73
2023-02-16T07:16:09.798Z,9.70
2023-02-16T07:19:10.889Z,9.64
2023-02-16T07:22:20.301Z,9.59
2023-02-16T07:25:29.537Z,9.58
2023-02-16T07:28:38.727Z,9.57
2023-02-16T07:31:27.884Z,9.58
2023-02-16T07:34:30.737Z,9.57
2023-02-16T07:37:21.729Z,9.58
2023-02-16T07:40:31.025Z,9.58
2023-02-16T07:43:42.594Z,9.56
2023-02-16T07:46:53.903Z,9.53
2023-02-16T07:49:45.768Z,9.49
2023-02-16T07:52:54.739Z,9.44
2023-02-16T07:55:44.377Z,9.41
2023-02-16T07:58:41.936Z,9.40
2023-02-16T08:01:39.484Z,9.40
2023-02-16T08:04:48.695Z,9.43
2023-02-16T08:07:51.413Z,9.47
2023-02-16T08:10:49.020Z,9.54
2023-02-16T08:13:50.134Z,9.59
2023-02-16T08:16:55.490Z,9.63
2023-02-16T08:19:57.724Z,9.69
2023-02-16T08:22:54.732Z,9.76
2023-02-16T08:26:09.415Z,9.80
2023-02-16T08:29:01.505Z,9.81
2023-02-16T08:32:12.503Z,9.81
2023-02-16T08:35:10.415Z,9.79
2023-02-16T08:38:09.983Z,9.75
2023-02-16T08:41:13.233Z,9.73
2023-02-16T08:44:13.637Z,9.73
2023-02-16T08:47:03.559Z,9.73
2023-02-16T08:49:52.229Z,9.74
2023-02-16T08:52:46.633Z,9.74
2023-02-16T08:55:38.786Z,9.71
2023-02-16T08:58:31.052Z,9.69
2023-02-16T09:01:20.093Z,9.67
2023-02-16T09:04:12.480Z,9.65
2023-02-16T09:07:10.822Z,9.62
2023-02-16T09:09:59.306Z,9.59
2023-02-16T09:13:10.170Z,9.56
2023-02-16T09:16:11.022Z,9.50
2023-02-16T09:19:02.682Z,9.48
2023-02-16T09:21:51.514Z,9.50
2023-02-16T09:25:02.147Z,9.49
2023-02-16T09:27:53.914Z,9.50
2023-02-16T09:30:42.554Z,9.52
2023-02-16T09:33:50.274Z,9.56
2023-02-16T09:37:05.998Z,9.58
2023-02-16T09:39:55.002Z,9.59
2023-02-16T09:43:08.420Z,9.62
2023-02-16T09:46:12.305Z,9.64
2023-02-16T09:49:24.825Z,9.66
2023-02-16T09:52:32.762Z,9.64
2023-02-16T09:55:46.133Z,9.60
2023-02-16T09:58:43.543Z,9.56
2023-02-16T10:01:40.493Z,9.54
2023-02-16T10:04:42.886Z,9.54
2023-02-16T10:07:53.154Z,9.53
2023-02-16T10:10:48.460Z,9.55
2023-02-16T10:13:43.575Z,9.58
2023-02-16T10:16:38.922Z,9.62
2023-02-16T10:19:33.875Z,9.67
2023-02-16T10:22:48.341Z,9.74
2023-02-16T10:25:46.227Z,9.78
2023-02-16T10:28:41.084Z,9.81
2023-02-16T10:31:32.871Z,9.85
2023-02-16T10:34:26.408Z,9.85
2023-02-16T10:37:29.558Z,9.85
2023-02-16T10:40:29.867Z,9.86
2023-02-16T10:43:37.423Z,9.91
2023-02-16T10:46:34.663Z,9.95
2023-02-16T10:49:26.763Z,9.97
2023-02-16T10:52:37.399Z,10.00
2023-02-16T10:55:26.424Z,10.01
2023-02-16T10:58:19.943Z,10.06
2023-02-16T11:01:33.226Z,10.02
2023-02-16T11:04:39.248Z,9.97
2023-02-16T11:07:30.880Z,9.99
2023-02-16T11:10:21.369Z,10.11
2023-02-16T11:13:20.404Z,10.26
2023-02-16T11:16:11.416Z,10.38
2023-02-16T11:19:01.299Z,10.46
2023-02-16T11:21:54.837Z,10.55
2023-02-16T11:24:43.216Z,10.71
2023-02-16T11:27:31.934Z,10.90
2023-02-16T11:30:28.889Z,11.12
2023-02-16T11:33:21.575Z,11.29
2023-02-16T11:36:20.272Z,11.47
2023-02-16T11:39:15.043Z,11.92
2023-02-16T11:42:06.499Z,12.38
2023-02-16T11:44:59.749Z,12.57
2023-02-16T11:47:58.288Z,12.66
2023-02-16T11:50:56.712Z,12.74
2023-02-16T11:53:45.778Z,12.69
2023-02-16T11:56:35.663Z,12.49
2023-02-16T11:59:24.317Z,12.42
2023-02-16T12:02:40.791Z,12.41
2023-02-16T12:05:36.109Z,13.50
2023-02-16T12:08:45.116Z,14.10
2023-02-16T12:11:38.292Z,14.17
2023-02-16T12:15:01.291Z,14.42
2023-02-16T12:18:13.249Z,15.45
2023-02-16T12:21:09.604Z,15.47
2023-02-16T12:24:04.528Z,15.73
2023-02-16T12:26:56.862Z,17.78
2023-02-16T12:29:53.221Z,18.79
2023-02-16T12:32:49.339Z,18.46
2023-02-16T12:35:42.896Z,17.57
2023-02-16T12:38:36.694Z,16.94
2023-02-16T12:41:32.176Z,17.81
2023-02-16T12:44:32.689Z,17.39
2023-02-16T12:47:24.230Z,16.93
2023-02-16T12:50:19.038Z,17.26
2023-02-16T12:53:12.033Z,17.43
2023-02-16T12:56:02.368Z,17.37
2023-02-16T12:58:55.684Z,17.53
2023-02-16T13:01:50.126Z,19.32
2023-02-16T13:04:43.768Z,20.28
2023-02-16T13:07:36.307Z,20.58
2023-02-16T13:10:30.867Z,20.47
2023-02-16T13:13:21.749Z,20.40
2023-02-16T13:16:27.765Z,20.15
2023-02-16T13:19:18.224Z,19.84
2023-02-16T13:22:24.585Z,18.64
2023-02-16T13:25:28.758Z,17.53
2023-02-16T13:28:27.184Z,17.13
2023-02-16T13:31:24.015Z,16.57
2023-02-16T13:34:35.549Z,15.84
2023-02-16T13:37:34.816Z,15.17
2023-02-16T13:40:30.968Z,14.75
2023-02-16T13:43:26.805Z,14.49
2023-02-16T13:46:17.803Z,14.25
2023-02-16T13:49:07.309Z,14.08
2023-02-16T13:51:56.217Z,13.94
2023-02-16T13:54:49.571Z,13.73
2023-02-16T13:58:09.436Z,13.52
2023-02-16T14:00:58.579Z,13.31
2023-02-16T14:03:49.091Z,13.21
2023-02-16T14:06:39.521Z,13.30
2023-02-16T14:09:47.660Z,13.53
2023-02-16T14:12:42.321Z,13.82
2023-02-16T14:15:49.376Z,14.15
2023-02-16T14:18:45.400Z,14.68
2023-02-16T14:21:38.966Z,15.25
2023-02-16T14:24:30.706Z,15.58
2023-02-16T14:27:40.188Z,15.72
2023-02-16T14:30:32.152Z,15.71
2023-02-16T14:33:32.635Z,15.54
2023-02-16T14:36:21.624Z,15.38
2023-02-16T14:39:12.016Z,15.35
2023-02-16T14:42:07.403Z,15.12
2023-02-16T14:45:03.031Z,14.72
2023-02-16T14:47:58.898Z,14.53
2023-02-16T14:50:54.804Z,14.46
2023-02-16T14:54:12.342Z,14.33
2023-02-16T14:57:02.513Z,14.04
2023-02-16T14:59:56.834Z,13.75
2023-02-16T15:02:55.498Z,13.64
2023-02-16T15:05:49.748Z,13.81
2023-02-16T15:08:47.976Z,14.18
2023-02-16T15:11:56.287Z,14.13
2023-02-16T15:14:53.771Z,13.92
2023-02-16T15:17:44.725Z,13.72
2023-02-16T15:20:34.254Z,13.55
2023-02-16T15:23:23.860Z,13.40
2023-02-16T15:26:21.542Z,13.28
2023-02-16T15:29:22.164Z,13.15
2023-02-16T15:32:18.680Z,13.10
2023-02-16T15:35:11.033Z,13.09
2023-02-16T15:38:00.936Z,13.18
2023-02-16T15:40:53.188Z,13.33
2023-02-16T15:43:46.380Z,13.62
2023-02-16T15:46:39.175Z,13.90
2023-02-16T15:49:29.908Z,13.95
2023-02-16T15:52:19.519Z,13.95
2023-02-16T15:55:11.736Z,14.08
2023-02-16T15:58:00.226Z,14.13
2023-02-16T16:00:49.000Z,14.22
2023-02-16T16:03:45.990Z,14.30
2023-02-16T16:06:36.114Z,14.26
2023-02-16T16:09:27.149Z,14.07
2023-02-16T16:12:17.674Z,13.86
2023-02-16T16:15:17.804Z,13.65
2023-02-16T16:18:07.062Z,13.48
2023-02-16T16:21:02.212Z,13.36
2023-02-16T16:24:03.749Z,13.28
2023-02-16T16:26:55.033Z,13.24
2023-02-16T16:29:45.117Z,13.20
2023-02-16T16:32:33.482Z,13.17
2023-02-16T16:35:34.761Z,13.15
2023-02-16T16:38:35.089Z,13.13
2023-02-16T16:41:32.789Z,13.11
2023-02-16T16:44:32.181Z,13.06
2023-02-16T16:47:24.645Z,13.01
2023-02-16T16:50:34.863Z,12.97
2023-02-16T16:53:38.720Z,12.96
2023-02-16T16:56:27.793Z,12.93
2023-02-16T16:59:16.922Z,12.93
2023-02-16T17:02:05.668Z,12.94
2023-02-16T17:05:12.108Z,12.94
2023-02-16T17:08:21.205Z,12.95
2023-02-16T17:11:13.835Z,12.97
2023-02-16T17:14:06.497Z,12.97
2023-02-16T17:16:55.754Z,12.97
2023-02-16T17:19:46.752Z,12.97
2023-02-16T17:22:35.104Z,12.96
2023-02-16T17:25:25.641Z,12.96
2023-02-16T17:28:15.184Z,12.95
2023-02-16T17:31:03.969Z,12.96
2023-02-16T17:33:57.634Z,12.96
2023-02-16T17:36:46.059Z,12.97
2023-02-16T17:39:34.950Z,12.96
2023-02-16T17:42:23.508Z,12.95
2023-02-16T17:45:18.042Z,12.96
2023-02-16T17:48:15.313Z,12.97
2023-02-16T17:51:14.121Z,13.00
2023-02-16T17:54:06.178Z,13.02
2023-02-16T17:56:55.299Z,13.04
2023-02-16T17:59:47.069Z,13.06
2023-02-16T18:02:35.631Z,13.07
2023-02-16T18:05:26.129Z,13.08
2023-02-16T18:08:14.968Z,13.08
2023-02-16T18:11:04.345Z,13.08
2023-02-16T18:13:53.001Z,13.08
2023-02-16T18:16:42.262Z,13.09
2023-02-16T18:19:31.609Z,13.09
2023-02-16T18:22:24.655Z,13.09
2023-02-16T18:25:13.657Z,13.09
2023-02-16T18:28:02.401Z,13.08
2023-02-16T18:30:51.267Z,13.07
2023-02-16T18:33:43.680Z,13.07
2023-02-16T18:36:34.130Z,13.06
2023-02-16T18:39:25.175Z,13.05
2023-02-16T18:42:19.193Z,13.04
2023-02-16T18:45:08.950Z,13.03
2023-02-16T18:47:57.571Z,13.01
2023-02-16T18:50:48.708Z,12.97
2023-02-16T18:53:40.342Z,12.94
2023-02-16T18:56:29.256Z,12.90
2023-02-16T18:59:28.945Z,12.88
2023-02-16T19:02:19.658Z,12.86
2023-02-16T19:05:08.491Z,12.83
2023-02-16T19:07:57.439Z,12.80
2023-02-16T19:10:45.996Z,12.75
2023-02-16T19:13:37.047Z,12.71
2023-02-16T19:16:28.777Z,12.67
2023-02-16T19:19:17.610Z,12.65
2023-02-16T19:22:06.530Z,12.64
2023-02-16T19:24:58.178Z,12.62
2023-02-16T19:27:47.065Z,12.60
2023-02-16T19:30:35.504Z,12.59
2023-02-16T19:33:27.126Z,12.58
2023-02-16T19:36:19.664Z,12.57
2023-02-16T19:39:13.819Z,12.56
2023-02-16T19:42:02.377Z,12.54
2023-02-16T19:45:01.510Z,12.52
2023-02-16T19:47:54.650Z,12.49
2023-02-16T19:50:43.342Z,12.49
2023-02-16T19:53:35.736Z,12.48
2023-02-16T19:56:31.733Z,12.47
2023-02-16T19:59:23.665Z,12.47
2023-02-16T20:02:21.282Z,12.47
2023-02-16T20:05:13.569Z,12.46
2023-02-16T20:08:06.152Z,12.45
2023-02-16T20:10:54.828Z,12.44
2023-02-16T20:13:52.933Z,12.43
2023-02-16T20:16:47.376Z,12.42
2023-02-16T20:19:38.739Z,12.40
2023-02-16T20:22:30.392Z,12.38
2023-02-16T20:25:19.287Z,12.37
2023-02-16T20:28:28.008Z,12.37
2023-02-16T20:31:31.978Z,12.36
2023-02-16T20:34:22.780Z,12.35
2023-02-16T20:37:11.412Z,12.35
2023-02-16T20:40:04.968Z,12.34
2023-02-16T20:43:05.152Z,12.35
2023-02-16T20:45:54.143Z,12.35
2023-02-16T20:48:52.487Z,12.36
2023-02-16T20:51:41.056Z,12.36
2023-02-16T20:54:29.821Z,12.36
2023-02-16T20:57:30.300Z,12.35
2023-02-16T21:00:23.729Z,12.33
2023-02-16T21:03:15.392Z,12.33
2023-02-16T21:06:04.549Z,12.34
2023-02-16T21:09:13.621Z,12.35
2023-02-16T21:12:02.372Z,12.35
2023-02-16T21:14:53.758Z,12.35
2023-02-16T21:17:50.944Z,12.36
2023-02-16T21:20:39.359Z,12.36
2023-02-16T21:23:32.424Z,12.36
2023-02-16T21:26:29.381Z,12.37
2023-02-16T21:29:17.935Z,12.36
2023-02-16T21:32:15.473Z,12.36
2023-02-16T21:35:06.440Z,12.36
2023-02-16T21:38:04.021Z,12.37
2023-02-16T21:41:12.735Z,12.37
2023-02-16T21:44:13.070Z,12.37
2023-02-16T21:47:22.366Z,12.36
2023-02-16T21:50:13.729Z,12.36
2023-02-16T21:53:04.112Z,12.37
2023-02-16T21:56:19.596Z,12.36
2023-02-16T21:59:17.476Z,12.36
2023-02-16T22:02:17.607Z,12.35
2023-02-16T22:05:06.449Z,12.35
2023-02-16T22:07:58.298Z,12.35
2023-02-16T22:10:49.919Z,12.34
2023-02-16T22:13:39.391Z,12.34
2023-02-16T22:16:28.828Z,12.33
2023-02-16T22:19:24.773Z,12.33
2023-02-16T22:22:13.240Z,12.32
2023-02-16T22:25:04.360Z,12.31
2023-02-16T22:28:13.039Z,12.29
2023-02-16T22:31:19.900Z,12.28
2023-02-16T22:34:19.338Z,12.27
2023-02-16T22:37:28.414Z,12.27
2023-02-16T22:40:20.074Z,12.27
2023-02-16T22:43:14.181Z,12.26
2023-02-16T22:46:13.516Z,12.26
2023-02-16T22:49:22.522Z,12.26
2023-02-16T22:52:14.042Z,12.27
2023-02-16T22:55:07.352Z,12.26
2023-02-16T22:58:16.646Z,12.25
2023-02-16T23:01:13.227Z,12.25
2023-02-16T23:04:04.109Z,12.25
2023-02-16T23:07:01.507Z,12.26
2023-02-16T23:10:10.604Z,12.28
2023-02-16T23:13:09.783Z,12.27
2023-02-16T23:16:03.068Z,12.27
2023-02-16T23:18:54.952Z,12.28
2023-02-16T23:21:46.366Z,12.30
2023-02-16T23:24:41.403Z,12.30
2023-02-16T23:27:35.569Z,12.29
2023-02-16T23:30:28.801Z,12.28
2023-02-16T23:33:28.805Z,12.28
2023-02-16T23:36:18.165Z,12.28
2023-02-16T23:39:12.976Z,12.27
2023-02-16T23:42:01.375Z,12.26
2023-02-16T23:45:00.214Z,12.25
2023-02-16T23:48:00.092Z,12.24
2023-02-16T23:50:53.922Z,12.24
2023-02-16T23:53:45.597Z,12.23
2023-02-16T23:56:40.812Z,12.23
2023-02-16T23:59:49.825Z,12.23
